首页
METAR-TAF:

METAR-TAF

机场 :

溫哥華國際機場

溫哥華, 不列颠哥伦比亚, 加拿大

纬度: 49-11N, 经度: 123-10W, 海拔: 3米

当前天气观测

该预报发布于59分钟前的21:00 UTC
风速3节,风向西转西北,在西西北之间变化
温度 19°C
湿度 73%
气压 1011 hPa
能見度: 48.3公里
少量云层高于5000英尺
少量云层高于18000英尺
散云层高于23000英尺

METAR: CYVR 262100Z 30003KT 260V320 30SM FEW050 FEW180 SCT230 19/14 A2986 RMK CF1AC1CS3 CF TR SLP112 DENSITY ALT 600FT

时间: 14:59 (21:59 UTC)

预报

该预报发布于1小时和21分钟前的20:38 UTC
预报有效从26日的 21点(UTC)到 27日的 24点(UTC)
风速8节,风向西转西北
能見度: 10公里
少量云层高于5000英尺
少量云层高于12000英尺
散云层高于23000英尺
从 26日的 2300点(UTC)
风速8节,风向南转西南
能見度: 10公里
少量云层高于8000英尺
散云层高于10000英尺
从 27日的 0200点(UTC)
风速3节,风向多变
能見度: 10公里
多云层高于8000英尺
从 27日的 0900点(UTC)
风速5节,风向东转东北
能見度: 10公里
少量云层高于12000英尺
散云层高于20000英尺
成为
从 27日的 14点(UTC)到 27日的 16点(UTC)
风速8节,风向西转西北

TAF: CYVR 262038Z 2621/2724 29008KT P6SM FEW050 FEW120 SCT230 FM262300 20008KT P6SM FEW080 SCT100 FM270200 VRB03KT P6SM BKN080 FM270900 07005KT P6SM FEW120 SCT200 BECMG 2714/2716 29008KT RMK NXT FCST BY 270000Z

超过4000个机场的气象观测和天气预报(METAR&TAF报告)。

可查询的气象台以黄色和红色小点在地图上表示。

将鼠标移到小点上方,可查看气象台名称。

然后点击查看天气观测和预报。

如需切换地图:点击带黑十字的绿色按钮放大地图;点击带横线的绿色按钮缩小地图;或者点击绿色箭头查看邻近地区的地图。


METAR-TAF: